sensor_id;sensor_type;location;lat;lon;timestamp;P1;durP1;ratioP1;P2;durP2;ratioP2
22191;SDS011;11261;52.456;10.850;2024-02-21T00:01:08;15.32;;;6.53;;
22191;SDS011;11261;52.456;10.850;2024-02-21T00:03:43;21.30;;;5.53;;
22191;SDS011;11261;52.456;10.850;2024-02-21T00:06:11;9.80;;;4.07;;
22191;SDS011;11261;52.456;10.850;2024-02-21T00:08:40;20.00;;;5.97;;
22191;SDS011;11261;52.456;10.850;2024-02-21T00:11:09;16.42;;;6.00;;
22191;SDS011;11261;52.456;10.850;2024-02-21T00:13:37;17.92;;;5.55;;
22191;SDS011;11261;52.456;10.850;2024-02-21T00:16:06;18.33;;;5.20;;
22191;SDS011;11261;52.456;10.850;2024-02-21T00:18:36;12.40;;;4.25;;
22191;SDS011;11261;52.456;10.850;2024-02-21T00:21:05;15.70;;;5.60;;
22191;SDS011;11261;52.456;10.850;2024-02-21T00:23:34;9.70;;;4.57;;
22191;SDS011;11261;52.456;10.850;2024-02-21T00:26:03;18.30;;;5.50;;
22191;SDS011;11261;52.456;10.850;2024-02-21T00:28:32;14.23;;;4.25;;
22191;SDS011;11261;52.456;10.850;2024-02-21T00:31:01;9.80;;;4.20;;
22191;SDS011;11261;52.456;10.850;2024-02-21T00:33:30;9.98;;;3.80;;
22191;SDS011;11261;52.456;10.850;2024-02-21T00:36:00;16.58;;;5.38;;
22191;SDS011;11261;52.456;10.850;2024-02-21T00:38:28;17.95;;;5.45;;
22191;SDS011;11261;52.456;10.850;2024-02-21T00:40:57;16.40;;;4.97;;
22191;SDS011;11261;52.456;10.850;2024-02-21T00:43:26;12.88;;;5.68;;
22191;SDS011;11261;52.456;10.850;2024-02-21T00:45:55;15.63;;;5.88;;
22191;SDS011;11261;52.456;10.850;2024-02-21T00:48:23;19.67;;;5.25;;
22191;SDS011;11261;52.456;10.850;2024-02-21T00:50:52;16.00;;;5.20;;
22191;SDS011;11261;52.456;10.850;2024-02-21T00:53:22;7.35;;;3.47;;
22191;SDS011;11261;52.456;10.850;2024-02-21T00:55:51;20.45;;;5.80;;
22191;SDS011;11261;52.456;10.850;2024-02-21T00:58:20;8.13;;;4.20;;
22191;SDS011;11261;52.456;10.850;2024-02-21T01:00:49;13.25;;;5.40;;
22191;SDS011;11261;52.456;10.850;2024-02-21T01:03:18;11.68;;;5.10;;
22191;SDS011;11261;52.456;10.850;2024-02-21T01:05:46;7.28;;;3.47;;
22191;SDS011;11261;52.456;10.850;2024-02-21T01:08:15;6.72;;;3.00;;
22191;SDS011;11261;52.456;10.850;2024-02-21T01:10:45;9.55;;;4.85;;
22191;SDS011;11261;52.456;10.850;2024-02-21T01:13:14;6.80;;;2.63;;
22191;SDS011;11261;52.456;10.850;2024-02-21T01:15:43;12.45;;;4.45;;
22191;SDS011;11261;52.456;10.850;2024-02-21T01:18:11;13.32;;;5.63;;
22191;SDS011;11261;52.456;10.850;2024-02-21T01:20:40;13.65;;;5.97;;
22191;SDS011;11261;52.456;10.850;2024-02-21T01:23:08;16.05;;;6.80;;
22191;SDS011;11261;52.456;10.850;2024-02-21T01:25:37;8.05;;;3.90;;
22191;SDS011;11261;52.456;10.850;2024-02-21T01:28:07;14.38;;;5.78;;
22191;SDS011;11261;52.456;10.850;2024-02-21T01:30:36;11.30;;;4.53;;
22191;SDS011;11261;52.456;10.850;2024-02-21T01:33:05;14.20;;;6.28;;
22191;SDS011;11261;52.456;10.850;2024-02-21T01:35:34;15.05;;;6.78;;
22191;SDS011;11261;52.456;10.850;2024-02-21T01:38:03;22.00;;;7.55;;
22191;SDS011;11261;52.456;10.850;2024-02-21T01:40:32;12.85;;;5.32;;
22191;SDS011;11261;52.456;10.850;2024-02-21T01:43:01;13.65;;;5.20;;
22191;SDS011;11261;52.456;10.850;2024-02-21T01:45:30;19.00;;;7.38;;
22191;SDS011;11261;52.456;10.850;2024-02-21T01:47:59;14.68;;;6.50;;
22191;SDS011;11261;52.456;10.850;2024-02-21T01:50:28;11.35;;;4.65;;
22191;SDS011;11261;52.456;10.850;2024-02-21T01:52:57;16.95;;;7.35;;
22191;SDS011;11261;52.456;10.850;2024-02-21T01:55:26;17.38;;;7.85;;
22191;SDS011;11261;52.456;10.850;2024-02-21T01:57:54;11.98;;;5.65;;
22191;SDS011;11261;52.456;10.850;2024-02-21T02:00:23;15.60;;;5.57;;
22191;SDS011;11261;52.456;10.850;2024-02-21T02:02:53;21.42;;;7.80;;
22191;SDS011;11261;52.456;10.850;2024-02-21T02:05:23;16.20;;;6.80;;
22191;SDS011;11261;52.456;10.850;2024-02-21T02:07:52;20.23;;;7.90;;
22191;SDS011;11261;52.456;10.850;2024-02-21T02:10:20;23.33;;;8.55;;
22191;SDS011;11261;52.456;10.850;2024-02-21T02:12:49;18.38;;;6.45;;
22191;SDS011;11261;52.456;10.850;2024-02-21T02:15:18;18.45;;;7.90;;
22191;SDS011;11261;52.456;10.850;2024-02-21T02:17:46;17.25;;;6.63;;
22191;SDS011;11261;52.456;10.850;2024-02-21T02:20:17;17.77;;;6.63;;
22191;SDS011;11261;52.456;10.850;2024-02-21T02:22:46;20.85;;;9.60;;
22191;SDS011;11261;52.456;10.850;2024-02-21T02:25:17;15.95;;;6.68;;
22191;SDS011;11261;52.456;10.850;2024-02-21T02:27:45;18.25;;;6.35;;
22191;SDS011;11261;52.456;10.850;2024-02-21T02:30:14;20.08;;;9.63;;
22191;SDS011;11261;52.456;10.850;2024-02-21T02:32:44;20.50;;;6.55;;
22191;SDS011;11261;52.456;10.850;2024-02-21T02:35:13;13.43;;;6.90;;
22191;SDS011;11261;52.456;10.850;2024-02-21T02:37:47;20.80;;;9.00;;
22191;SDS011;11261;52.456;10.850;2024-02-21T02:40:17;21.38;;;7.57;;
22191;SDS011;11261;52.456;10.850;2024-02-21T02:42:46;25.83;;;8.98;;
22191;SDS011;11261;52.456;10.850;2024-02-21T02:45:15;15.90;;;7.65;;
22191;SDS011;11261;52.456;10.850;2024-02-21T02:47:44;13.80;;;6.15;;
22191;SDS011;11261;52.456;10.850;2024-02-21T02:50:14;18.05;;;7.63;;
22191;SDS011;11261;52.456;10.850;2024-02-21T02:52:43;16.50;;;7.55;;
22191;SDS011;11261;52.456;10.850;2024-02-21T02:55:11;21.33;;;9.35;;
22191;SDS011;11261;52.456;10.850;2024-02-21T02:57:41;17.45;;;8.48;;
22191;SDS011;11261;52.456;10.850;2024-02-21T03:00:11;13.57;;;5.70;;
22191;SDS011;11261;52.456;10.850;2024-02-21T03:02:41;19.10;;;8.20;;
22191;SDS011;11261;52.456;10.850;2024-02-21T03:05:12;11.77;;;6.20;;
22191;SDS011;11261;52.456;10.850;2024-02-21T03:07:42;10.05;;;4.00;;
22191;SDS011;11261;52.456;10.850;2024-02-21T03:10:11;11.38;;;5.45;;
22191;SDS011;11261;52.456;10.850;2024-02-21T03:12:42;9.77;;;5.20;;
22191;SDS011;11261;52.456;10.850;2024-02-21T03:15:10;20.25;;;7.20;;
22191;SDS011;11261;52.456;10.850;2024-02-21T03:17:39;26.42;;;7.93;;
22191;SDS011;11261;52.456;10.850;2024-02-21T03:20:08;12.15;;;6.88;;
22191;SDS011;11261;52.456;10.850;2024-02-21T03:22:39;7.22;;;4.05;;
22191;SDS011;11261;52.456;10.850;2024-02-21T03:25:08;13.32;;;5.90;;
22191;SDS011;11261;52.456;10.850;2024-02-21T03:27:37;15.23;;;7.03;;
22191;SDS011;11261;52.456;10.850;2024-02-21T03:30:07;18.73;;;5.63;;
22191;SDS011;11261;52.456;10.850;2024-02-21T03:32:36;10.65;;;4.47;;
22191;SDS011;11261;52.456;10.850;2024-02-21T03:35:05;8.10;;;4.25;;
22191;SDS011;11261;52.456;10.850;2024-02-21T03:37:34;9.95;;;5.18;;
22191;SDS011;11261;52.456;10.850;2024-02-21T03:40:06;18.73;;;7.70;;
22191;SDS011;11261;52.456;10.850;2024-02-21T03:42:35;12.70;;;7.15;;
22191;SDS011;11261;52.456;10.850;2024-02-21T03:45:03;11.77;;;6.35;;
22191;SDS011;11261;52.456;10.850;2024-02-21T03:47:33;6.45;;;3.40;;
22191;SDS011;11261;52.456;10.850;2024-02-21T03:50:02;7.90;;;3.92;;
22191;SDS011;11261;52.456;10.850;2024-02-21T03:52:31;9.25;;;4.32;;
22191;SDS011;11261;52.456;10.850;2024-02-21T03:54:59;16.58;;;8.10;;
22191;SDS011;11261;52.456;10.850;2024-02-21T03:57:28;8.02;;;4.45;;
22191;SDS011;11261;52.456;10.850;2024-02-21T03:59:57;14.77;;;8.27;;
22191;SDS011;11261;52.456;10.850;2024-02-21T04:02:25;9.02;;;5.18;;
22191;SDS011;11261;52.456;10.850;2024-02-21T04:04:56;24.65;;;8.70;;
22191;SDS011;11261;52.456;10.850;2024-02-21T04:07:25;19.13;;;8.10;;
22191;SDS011;11261;52.456;10.850;2024-02-21T04:09:55;9.30;;;4.95;;
22191;SDS011;11261;52.456;10.850;2024-02-21T04:12:24;20.42;;;8.80;;
22191;SDS011;11261;52.456;10.850;2024-02-21T04:14:52;19.67;;;8.15;;
22191;SDS011;11261;52.456;10.850;2024-02-21T04:17:21;19.80;;;8.05;;
22191;SDS011;11261;52.456;10.850;2024-02-21T04:19:50;21.88;;;8.93;;
22191;SDS011;11261;52.456;10.850;2024-02-21T04:22:20;22.00;;;9.70;;
22191;SDS011;11261;52.456;10.850;2024-02-21T04:24:48;16.08;;;8.60;;
22191;SDS011;11261;52.456;10.850;2024-02-21T04:27:17;12.55;;;5.35;;
22191;SDS011;11261;52.456;10.850;2024-02-21T04:29:45;15.02;;;7.88;;
22191;SDS011;11261;52.456;10.850;2024-02-21T04:32:13;24.17;;;9.13;;
22191;SDS011;11261;52.456;10.850;2024-02-21T04:34:42;19.98;;;9.07;;
22191;SDS011;11261;52.456;10.850;2024-02-21T04:37:11;13.65;;;7.32;;
22191;SDS011;11261;52.456;10.850;2024-02-21T04:39:41;19.17;;;8.07;;
22191;SDS011;11261;52.456;10.850;2024-02-21T04:42:09;14.45;;;7.03;;
22191;SDS011;11261;52.456;10.850;2024-02-21T04:44:38;18.73;;;6.07;;
22191;SDS011;11261;52.456;10.850;2024-02-21T04:47:07;11.52;;;4.22;;
22191;SDS011;11261;52.456;10.850;2024-02-21T04:49:35;17.80;;;6.60;;
22191;SDS011;11261;52.456;10.850;2024-02-21T04:52:04;16.52;;;7.97;;
22191;SDS011;11261;52.456;10.850;2024-02-21T04:54:33;17.98;;;7.45;;
22191;SDS011;11261;52.456;10.850;2024-02-21T04:57:03;11.15;;;5.05;;
22191;SDS011;11261;52.456;10.850;2024-02-21T04:59:32;20.80;;;7.85;;
22191;SDS011;11261;52.456;10.850;2024-02-21T05:02:01;18.55;;;7.53;;
22191;SDS011;11261;52.456;10.850;2024-02-21T05:04:30;16.33;;;7.38;;
22191;SDS011;11261;52.456;10.850;2024-02-21T05:06:59;16.75;;;8.70;;
22191;SDS011;11261;52.456;10.850;2024-02-21T05:09:28;20.33;;;8.73;;
22191;SDS011;11261;52.456;10.850;2024-02-21T05:11:57;17.85;;;8.25;;
22191;SDS011;11261;52.456;10.850;2024-02-21T05:14:27;17.38;;;8.30;;
22191;SDS011;11261;52.456;10.850;2024-02-21T05:16:56;16.70;;;8.40;;
22191;SDS011;11261;52.456;10.850;2024-02-21T05:19:24;18.30;;;5.78;;
22191;SDS011;11261;52.456;10.850;2024-02-21T05:21:53;9.73;;;5.57;;
22191;SDS011;11261;52.456;10.850;2024-02-21T05:24:22;20.83;;;9.20;;
22191;SDS011;11261;52.456;10.850;2024-02-21T05:26:50;21.83;;;9.35;;
22191;SDS011;11261;52.456;10.850;2024-02-21T05:29:19;20.00;;;7.70;;
22191;SDS011;11261;52.456;10.850;2024-02-21T05:31:58;17.70;;;9.25;;
22191;SDS011;11261;52.456;10.850;2024-02-21T05:34:27;9.02;;;5.05;;
22191;SDS011;11261;52.456;10.850;2024-02-21T05:36:56;8.85;;;5.57;;
22191;SDS011;11261;52.456;10.850;2024-02-21T05:39:26;13.50;;;5.90;;
22191;SDS011;11261;52.456;10.850;2024-02-21T05:41:56;7.45;;;4.28;;
22191;SDS011;11261;52.456;10.850;2024-02-21T05:44:24;9.55;;;4.13;;
22191;SDS011;11261;52.456;10.850;2024-02-21T05:46:54;16.48;;;8.38;;
22191;SDS011;11261;52.456;10.850;2024-02-21T05:49:23;17.52;;;6.05;;
22191;SDS011;11261;52.456;10.850;2024-02-21T05:51:52;11.65;;;3.92;;
22191;SDS011;11261;52.456;10.850;2024-02-21T05:54:21;16.63;;;7.03;;
22191;SDS011;11261;52.456;10.850;2024-02-21T05:56:50;14.30;;;7.28;;
22191;SDS011;11261;52.456;10.850;2024-02-21T05:59:20;19.05;;;8.85;;
22191;SDS011;11261;52.456;10.850;2024-02-21T06:01:54;14.32;;;6.50;;
22191;SDS011;11261;52.456;10.850;2024-02-21T06:04:26;9.00;;;4.07;;
22191;SDS011;11261;52.456;10.850;2024-02-21T06:06:55;16.15;;;7.97;;
22191;SDS011;11261;52.456;10.850;2024-02-21T06:09:24;15.38;;;7.63;;
22191;SDS011;11261;52.456;10.850;2024-02-21T06:11:52;13.45;;;5.57;;
22191;SDS011;11261;52.456;10.850;2024-02-21T06:14:20;15.70;;;7.30;;
22191;SDS011;11261;52.456;10.850;2024-02-21T06:16:49;12.18;;;5.75;;
22191;SDS011;11261;52.456;10.850;2024-02-21T06:19:18;15.57;;;7.43;;
22191;SDS011;11261;52.456;10.850;2024-02-21T06:21:48;10.68;;;6.45;;
22191;SDS011;11261;52.456;10.850;2024-02-21T06:24:17;18.05;;;8.82;;
22191;SDS011;11261;52.456;10.850;2024-02-21T06:26:45;17.38;;;8.77;;
22191;SDS011;11261;52.456;10.850;2024-02-21T06:29:14;13.40;;;7.30;;
22191;SDS011;11261;52.456;10.850;2024-02-21T06:31:43;14.43;;;7.75;;
22191;SDS011;11261;52.456;10.850;2024-02-21T06:34:11;16.48;;;7.72;;
22191;SDS011;11261;52.456;10.850;2024-02-21T06:36:40;20.38;;;9.73;;
22191;SDS011;11261;52.456;10.850;2024-02-21T06:39:10;19.33;;;9.30;;
22191;SDS011;11261;52.456;10.850;2024-02-21T06:41:39;14.77;;;7.25;;
22191;SDS011;11261;52.456;10.850;2024-02-21T06:44:08;17.58;;;8.38;;
22191;SDS011;11261;52.456;10.850;2024-02-21T06:46:36;15.63;;;7.30;;
22191;SDS011;11261;52.456;10.850;2024-02-21T06:49:05;13.60;;;7.82;;
22191;SDS011;11261;52.456;10.850;2024-02-21T06:51:34;12.93;;;6.10;;
22191;SDS011;11261;52.456;10.850;2024-02-21T06:54:03;21.52;;;8.18;;
22191;SDS011;11261;52.456;10.850;2024-02-21T06:56:33;15.85;;;8.63;;
22191;SDS011;11261;52.456;10.850;2024-02-21T06:59:02;14.70;;;7.70;;
22191;SDS011;11261;52.456;10.850;2024-02-21T07:01:31;13.52;;;7.63;;
22191;SDS011;11261;52.456;10.850;2024-02-21T07:04:00;8.93;;;4.45;;
22191;SDS011;11261;52.456;10.850;2024-02-21T07:06:29;14.55;;;7.45;;
22191;SDS011;11261;52.456;10.850;2024-02-21T07:09:01;16.95;;;8.95;;
22191;SDS011;11261;52.456;10.850;2024-02-21T07:11:30;19.05;;;9.25;;
22191;SDS011;11261;52.456;10.850;2024-02-21T07:14:00;21.30;;;8.55;;
22191;SDS011;11261;52.456;10.850;2024-02-21T07:16:29;18.02;;;10.45;;
22191;SDS011;11261;52.456;10.850;2024-02-21T07:18:59;18.67;;;8.23;;
22191;SDS011;11261;52.456;10.850;2024-02-21T07:21:27;17.00;;;9.27;;
22191;SDS011;11261;52.456;10.850;2024-02-21T07:23:56;21.35;;;9.05;;
22191;SDS011;11261;52.456;10.850;2024-02-21T07:26:25;10.98;;;6.43;;
22191;SDS011;11261;52.456;10.850;2024-02-21T07:28:53;15.95;;;9.40;;
22191;SDS011;11261;52.456;10.850;2024-02-21T07:31:24;14.50;;;6.10;;
22191;SDS011;11261;52.456;10.850;2024-02-21T07:33:52;12.98;;;7.53;;
22191;SDS011;11261;52.456;10.850;2024-02-21T07:36:25;9.65;;;5.38;;
22191;SDS011;11261;52.456;10.850;2024-02-21T07:38:54;15.63;;;6.32;;
22191;SDS011;11261;52.456;10.850;2024-02-21T07:41:22;10.05;;;4.10;;
22191;SDS011;11261;52.456;10.850;2024-02-21T07:43:51;15.95;;;9.15;;
22191;SDS011;11261;52.456;10.850;2024-02-21T07:46:20;16.75;;;8.88;;
22191;SDS011;11261;52.456;10.850;2024-02-21T07:48:50;10.35;;;5.60;;
22191;SDS011;11261;52.456;10.850;2024-02-21T07:51:19;14.75;;;7.43;;
22191;SDS011;11261;52.456;10.850;2024-02-21T07:53:47;10.40;;;6.15;;
22191;SDS011;11261;52.456;10.850;2024-02-21T07:56:16;13.43;;;7.57;;
22191;SDS011;11261;52.456;10.850;2024-02-21T07:58:44;17.75;;;8.35;;
22191;SDS011;11261;52.456;10.850;2024-02-21T08:01:17;15.77;;;8.35;;
22191;SDS011;11261;52.456;10.850;2024-02-21T08:03:47;13.90;;;6.07;;
22191;SDS011;11261;52.456;10.850;2024-02-21T08:06:17;14.75;;;6.75;;
22191;SDS011;11261;52.456;10.850;2024-02-21T08:08:46;14.88;;;7.18;;
22191;SDS011;11261;52.456;10.850;2024-02-21T08:11:14;12.75;;;4.13;;
22191;SDS011;11261;52.456;10.850;2024-02-21T08:13:44;15.80;;;7.53;;
22191;SDS011;11261;52.456;10.850;2024-02-21T08:16:13;14.13;;;7.47;;
22191;SDS011;11261;52.456;10.850;2024-02-21T08:18:43;10.57;;;5.38;;
22191;SDS011;11261;52.456;10.850;2024-02-21T08:21:12;7.07;;;4.53;;
22191;SDS011;11261;52.456;10.850;2024-02-21T08:23:42;6.72;;;4.68;;
22191;SDS011;11261;52.456;10.850;2024-02-21T08:26:11;6.20;;;3.63;;
22191;SDS011;11261;52.456;10.850;2024-02-21T08:28:40;23.10;;;8.68;;
22191;SDS011;11261;52.456;10.850;2024-02-21T08:31:08;8.18;;;4.20;;
22191;SDS011;11261;52.456;10.850;2024-02-21T08:33:37;16.10;;;7.57;;
22191;SDS011;11261;52.456;10.850;2024-02-21T08:36:06;15.30;;;5.85;;
22191;SDS011;11261;52.456;10.850;2024-02-21T08:38:35;9.30;;;4.70;;
22191;SDS011;11261;52.456;10.850;2024-02-21T08:41:05;12.77;;;7.65;;
22191;SDS011;11261;52.456;10.850;2024-02-21T08:43:34;10.40;;;5.05;;
22191;SDS011;11261;52.456;10.850;2024-02-21T08:46:03;12.82;;;6.90;;
22191;SDS011;11261;52.456;10.850;2024-02-21T08:48:31;17.90;;;6.80;;
22191;SDS011;11261;52.456;10.850;2024-02-21T08:51:01;8.43;;;5.72;;
22191;SDS011;11261;52.456;10.850;2024-02-21T08:53:29;10.02;;;5.50;;
22191;SDS011;11261;52.456;10.850;2024-02-21T08:55:58;14.43;;;7.47;;
22191;SDS011;11261;52.456;10.850;2024-02-21T08:58:28;9.63;;;4.78;;
22191;SDS011;11261;52.456;10.850;2024-02-21T09:00:57;15.63;;;6.45;;
22191;SDS011;11261;52.456;10.850;2024-02-21T09:03:26;11.75;;;6.40;;
22191;SDS011;11261;52.456;10.850;2024-02-21T09:05:54;13.77;;;6.75;;
22191;SDS011;11261;52.456;10.850;2024-02-21T09:08:23;7.32;;;4.00;;
22191;SDS011;11261;52.456;10.850;2024-02-21T09:10:51;8.73;;;4.25;;
22191;SDS011;11261;52.456;10.850;2024-02-21T09:13:20;9.30;;;4.20;;
22191;SDS011;11261;52.456;10.850;2024-02-21T09:15:51;7.10;;;4.30;;
22191;SDS011;11261;52.456;10.850;2024-02-21T09:18:20;11.45;;;6.28;;
22191;SDS011;11261;52.456;10.850;2024-02-21T09:20:48;13.30;;;5.28;;
22191;SDS011;11261;52.456;10.850;2024-02-21T09:23:17;11.65;;;4.78;;
22191;SDS011;11261;52.456;10.850;2024-02-21T09:25:46;12.95;;;6.00;;
22191;SDS011;11261;52.456;10.850;2024-02-21T09:28:15;10.88;;;5.22;;
22191;SDS011;11261;52.456;10.850;2024-02-21T09:30:44;12.07;;;5.95;;
22191;SDS011;11261;52.456;10.850;2024-02-21T09:33:14;15.77;;;7.13;;
22191;SDS011;11261;52.456;10.850;2024-02-21T09:35:57;8.30;;;4.97;;
22191;SDS011;11261;52.456;10.850;2024-02-21T09:38:26;10.98;;;4.38;;
22191;SDS011;11261;52.456;10.850;2024-02-21T09:40:55;13.27;;;6.85;;
22191;SDS011;11261;52.456;10.850;2024-02-21T09:43:27;11.05;;;6.18;;
22191;SDS011;11261;52.456;10.850;2024-02-21T09:45:57;12.38;;;7.45;;
22191;SDS011;11261;52.456;10.850;2024-02-21T09:48:30;9.90;;;5.35;;
22191;SDS011;11261;52.456;10.850;2024-02-21T09:51:02;14.90;;;6.75;;
22191;SDS011;11261;52.456;10.850;2024-02-21T09:53:31;13.05;;;5.55;;
22191;SDS011;11261;52.456;10.850;2024-02-21T09:56:00;11.07;;;5.90;;
22191;SDS011;11261;52.456;10.850;2024-02-21T09:58:30;16.27;;;6.10;;
22191;SDS011;11261;52.456;10.850;2024-02-21T10:01:00;17.30;;;6.10;;
22191;SDS011;11261;52.456;10.850;2024-02-21T10:03:52;10.55;;;5.65;;
22191;SDS011;11261;52.456;10.850;2024-02-21T10:06:24;8.93;;;3.15;;
22191;SDS011;11261;52.456;10.850;2024-02-21T10:08:56;10.68;;;4.88;;
22191;SDS011;11261;52.456;10.850;2024-02-21T10:11:24;6.47;;;3.88;;
22191;SDS011;11261;52.456;10.850;2024-02-21T10:14:02;10.32;;;4.85;;
22191;SDS011;11261;52.456;10.850;2024-02-21T10:16:31;2.90;;;2.15;;
22191;SDS011;11261;52.456;10.850;2024-02-21T10:19:02;5.80;;;3.22;;
22191;SDS011;11261;52.456;10.850;2024-02-21T10:21:31;10.80;;;5.18;;
22191;SDS011;11261;52.456;10.850;2024-02-21T10:24:00;9.82;;;3.50;;
22191;SDS011;11261;52.456;10.850;2024-02-21T10:26:29;4.07;;;1.73;;
22191;SDS011;11261;52.456;10.850;2024-02-21T10:28:57;6.07;;;2.40;;
22191;SDS011;11261;52.456;10.850;2024-02-21T10:31:27;9.50;;;4.10;;
22191;SDS011;11261;52.456;10.850;2024-02-21T10:33:56;11.60;;;4.18;;
22191;SDS011;11261;52.456;10.850;2024-02-21T10:36:26;7.75;;;3.95;;
22191;SDS011;11261;52.456;10.850;2024-02-21T10:38:55;11.13;;;3.70;;
22191;SDS011;11261;52.456;10.850;2024-02-21T10:41:24;5.10;;;3.53;;
22191;SDS011;11261;52.456;10.850;2024-02-21T10:43:54;3.55;;;2.35;;
22191;SDS011;11261;52.456;10.850;2024-02-21T10:46:23;6.68;;;2.97;;
22191;SDS011;11261;52.456;10.850;2024-02-21T10:48:57;2.15;;;1.75;;
22191;SDS011;11261;52.456;10.850;2024-02-21T10:51:30;5.20;;;3.03;;
22191;SDS011;11261;52.456;10.850;2024-02-21T10:54:04;5.10;;;2.28;;
22191;SDS011;11261;52.456;10.850;2024-02-21T10:56:38;4.65;;;1.80;;
22191;SDS011;11261;52.456;10.850;2024-02-21T10:59:07;5.75;;;2.35;;
22191;SDS011;11261;52.456;10.850;2024-02-21T11:01:36;7.38;;;2.92;;
22191;SDS011;11261;52.456;10.850;2024-02-21T11:04:06;4.15;;;1.70;;
22191;SDS011;11261;52.456;10.850;2024-02-21T11:06:37;8.23;;;3.20;;
22191;SDS011;11261;52.456;10.850;2024-02-21T11:09:07;5.88;;;2.42;;
22191;SDS011;11261;52.456;10.850;2024-02-21T11:11:37;5.63;;;2.10;;
22191;SDS011;11261;52.456;10.850;2024-02-21T11:14:07;2.05;;;1.58;;
22191;SDS011;11261;52.456;10.850;2024-02-21T11:16:37;5.68;;;2.70;;
22191;SDS011;11261;52.456;10.850;2024-02-21T11:19:07;5.03;;;2.67;;
22191;SDS011;11261;52.456;10.850;2024-02-21T11:21:37;3.45;;;1.77;;
22191;SDS011;11261;52.456;10.850;2024-02-21T11:24:08;8.82;;;2.67;;
22191;SDS011;11261;52.456;10.850;2024-02-21T11:26:37;5.20;;;1.63;;
22191;SDS011;11261;52.456;10.850;2024-02-21T11:29:05;5.05;;;2.00;;
22191;SDS011;11261;52.456;10.850;2024-02-21T11:31:39;3.92;;;1.85;;
22191;SDS011;11261;52.456;10.850;2024-02-21T11:34:09;5.95;;;2.53;;
22191;SDS011;11261;52.456;10.850;2024-02-21T11:39:10;5.22;;;1.83;;
22191;SDS011;11261;52.456;10.850;2024-02-21T11:41:39;3.83;;;1.60;;
22191;SDS011;11261;52.456;10.850;2024-02-21T11:44:07;5.13;;;1.95;;
22191;SDS011;11261;52.456;10.850;2024-02-21T11:46:36;4.70;;;1.90;;
22191;SDS011;11261;52.456;10.850;2024-02-21T11:49:05;6.80;;;2.47;;
22191;SDS011;11261;52.456;10.850;2024-02-21T11:51:34;4.53;;;2.47;;
22191;SDS011;11261;52.456;10.850;2024-02-21T11:54:03;5.00;;;1.80;;
22191;SDS011;11261;52.456;10.850;2024-02-21T11:56:33;3.97;;;2.13;;
22191;SDS011;11261;52.456;10.850;2024-02-21T11:59:02;6.50;;;2.70;;
22191;SDS011;11261;52.456;10.850;2024-02-21T12:01:33;5.72;;;2.05;;
22191;SDS011;11261;52.456;10.850;2024-02-21T12:04:02;5.18;;;2.05;;
22191;SDS011;11261;52.456;10.850;2024-02-21T12:06:32;5.43;;;1.58;;
22191;SDS011;11261;52.456;10.850;2024-02-21T12:09:01;6.05;;;2.30;;
22191;SDS011;11261;52.456;10.850;2024-02-21T12:11:29;4.60;;;1.45;;
22191;SDS011;11261;52.456;10.850;2024-02-21T12:14:00;5.05;;;1.98;;
22191;SDS011;11261;52.456;10.850;2024-02-21T12:16:30;5.45;;;1.90;;
22191;SDS011;11261;52.456;10.850;2024-02-21T12:18:59;6.55;;;2.05;;
22191;SDS011;11261;52.456;10.850;2024-02-21T12:21:29;6.85;;;1.85;;
22191;SDS011;11261;52.456;10.850;2024-02-21T12:23:59;3.38;;;1.15;;
22191;SDS011;11261;52.456;10.850;2024-02-21T12:26:31;2.60;;;1.45;;
22191;SDS011;11261;52.456;10.850;2024-02-21T12:29:01;5.32;;;1.92;;
22191;SDS011;11261;52.456;10.850;2024-02-21T12:31:29;4.95;;;1.95;;
22191;SDS011;11261;52.456;10.850;2024-02-21T12:33:58;2.03;;;1.35;;
22191;SDS011;11261;52.456;10.850;2024-02-21T12:36:27;16.17;;;2.03;;
22191;SDS011;11261;52.456;10.850;2024-02-21T12:38:55;6.15;;;1.95;;
22191;SDS011;11261;52.456;10.850;2024-02-21T12:41:24;2.80;;;1.25;;
22191;SDS011;11261;52.456;10.850;2024-02-21T12:43:53;6.75;;;2.10;;
22191;SDS011;11261;52.456;10.850;2024-02-21T12:46:24;3.05;;;2.05;;
22191;SDS011;11261;52.456;10.850;2024-02-21T12:48:53;5.10;;;2.50;;
22191;SDS011;11261;52.456;10.850;2024-02-21T12:51:21;4.95;;;1.70;;
22191;SDS011;11261;52.456;10.850;2024-02-21T12:53:50;6.13;;;1.95;;
22191;SDS011;11261;52.456;10.850;2024-02-21T12:56:19;6.25;;;2.05;;
22191;SDS011;11261;52.456;10.850;2024-02-21T12:58:47;5.00;;;2.10;;
22191;SDS011;11261;52.456;10.850;2024-02-21T13:01:16;3.10;;;1.33;;
22191;SDS011;11261;52.456;10.850;2024-02-21T13:03:46;8.05;;;2.10;;
22191;SDS011;11261;52.456;10.850;2024-02-21T13:06:15;7.25;;;2.47;;
22191;SDS011;11261;52.456;10.850;2024-02-21T13:08:45;6.43;;;1.90;;
22191;SDS011;11261;52.456;10.850;2024-02-21T13:11:14;2.45;;;1.20;;
22191;SDS011;11261;52.456;10.850;2024-02-21T13:13:43;3.70;;;1.88;;
22191;SDS011;11261;52.456;10.850;2024-02-21T13:16:12;7.75;;;2.20;;
22191;SDS011;11261;52.456;10.850;2024-02-21T13:18:40;7.28;;;2.33;;
22191;SDS011;11261;52.456;10.850;2024-02-21T13:21:11;5.38;;;2.72;;
22191;SDS011;11261;52.456;10.850;2024-02-21T13:23:40;8.80;;;2.78;;
22191;SDS011;11261;52.456;10.850;2024-02-21T13:26:10;5.07;;;2.17;;
22191;SDS011;11261;52.456;10.850;2024-02-21T13:28:40;7.53;;;3.10;;
22191;SDS011;11261;52.456;10.850;2024-02-21T13:31:11;6.22;;;2.25;;
22191;SDS011;11261;52.456;10.850;2024-02-21T13:33:40;4.70;;;2.03;;
22191;SDS011;11261;52.456;10.850;2024-02-21T13:36:08;5.13;;;2.65;;
22191;SDS011;11261;52.456;10.850;2024-02-21T13:38:38;4.13;;;1.88;;
22191;SDS011;11261;52.456;10.850;2024-02-21T13:41:07;4.47;;;2.00;;
22191;SDS011;11261;52.456;10.850;2024-02-21T13:43:35;5.85;;;2.28;;
22191;SDS011;11261;52.456;10.850;2024-02-21T13:46:04;4.32;;;1.95;;
22191;SDS011;11261;52.456;10.850;2024-02-21T13:48:36;3.75;;;2.33;;
22191;SDS011;11261;52.456;10.850;2024-02-21T13:51:05;3.83;;;1.80;;
22191;SDS011;11261;52.456;10.850;2024-02-21T13:53:34;2.92;;;1.88;;
22191;SDS011;11261;52.456;10.850;2024-02-21T13:56:04;4.50;;;2.60;;
22191;SDS011;11261;52.456;10.850;2024-02-21T13:58:33;5.95;;;2.80;;
22191;SDS011;11261;52.456;10.850;2024-02-21T14:01:02;7.22;;;2.63;;
22191;SDS011;11261;52.456;10.850;2024-02-21T14:03:31;7.55;;;2.90;;
22191;SDS011;11261;52.456;10.850;2024-02-21T14:05:59;4.20;;;2.50;;
22191;SDS011;11261;52.456;10.850;2024-02-21T14:08:28;6.97;;;3.10;;
22191;SDS011;11261;52.456;10.850;2024-02-21T14:10:57;11.48;;;3.97;;
22191;SDS011;11261;52.456;10.850;2024-02-21T14:13:28;7.60;;;3.60;;
22191;SDS011;11261;52.456;10.850;2024-02-21T14:15:57;8.35;;;3.70;;
22191;SDS011;11261;52.456;10.850;2024-02-21T14:18:25;12.10;;;4.03;;
22191;SDS011;11261;52.456;10.850;2024-02-21T14:20:54;9.15;;;4.43;;
22191;SDS011;11261;52.456;10.850;2024-02-21T14:23:23;7.95;;;2.92;;
22191;SDS011;11261;52.456;10.850;2024-02-21T14:25:51;7.15;;;3.72;;
22191;SDS011;11261;52.456;10.850;2024-02-21T14:28:20;8.20;;;4.18;;
22191;SDS011;11261;52.456;10.850;2024-02-21T14:30:50;7.55;;;3.72;;
22191;SDS011;11261;52.456;10.850;2024-02-21T14:33:23;7.72;;;3.67;;
22191;SDS011;11261;52.456;10.850;2024-02-21T14:35:53;10.07;;;3.70;;
22191;SDS011;11261;52.456;10.850;2024-02-21T14:38:21;7.22;;;3.72;;
22191;SDS011;11261;52.456;10.850;2024-02-21T14:40:50;10.32;;;3.55;;